Thunder radar more information blitzortung!


Radar de pluja more information rain snow radar


Visita la nostra xarxa de llocs de meteo:

Template documentation
and downloads

And another site



No particular awareness of the weather is required.    There are no Weather-warnings

Pagina Historial Weather Underground text

Diari Resum Juliol 30, 2017 Unitats:  Mètric    Imperial   Tant
« Previous Dia
SegĂźent Dia »
Diari Setmana Mensual Anual Personalitzada
  Maxima: Minima: Media:
Temperatura: 35.5 °C 19.9 °C 28 °C
Punt de rosada: 19.1 °C 14.9 °C 17.5 °C
Humitat: 76 % 34 % 55 %
Wind Speed: 22.2 km/h 0.0 km/h 8.1 km/h
RĂ fegues de vent: 22.2 km/h - -
Vent:- - East
Pression baro: 1013.8 hPa 1009.0 hPa -
Precipitacions: 0.0 mm    
Historical Graphs
 
 
Dades de taula per Juliol 30, 2017
Temps Temperatura Punt de rosada Pression baro Vent Wind Speed RĂ fegues de vent Humitat Rainfall Rate (Hourly)
00:00 21.1 °C 14.9 °C 1011.7 hPa Calm   3.2 km/h 68 % 0.0 mm
00:04 24.6 °C 16.3 °C 1013.8 hPa Calm     60 % 0.0 mm
00:09 24.5 °C 16.2 °C 1013.8 hPa Calm     60 % 0.0 mm
00:10 20.8 °C 15.1 °C 1011.7 hPa Calm   1.6 km/h 70 % 0.0 mm
00:14 24.5 °C 16.5 °C 1013.8 hPa WNW 1.9 km/h   61 % 0.0 mm
00:19 24.4 °C 16.4 °C 1013.8 hPa Calm     61 % 0.0 mm
00:20 20.6 °C 15.2 °C 1011.7 hPa Calm     71 % 0.0 mm
00:24 24.4 °C 16.7 °C 1013.8 hPa Calm     62 % 0.0 mm
00:29 24.3 °C 16.6 °C 1013.8 hPa Calm     62 % 0.0 mm
00:30 20.5 °C 15.1 °C 1011.7 hPa Calm   1.6 km/h 71 % 0.0 mm
00:34 24.2 °C 16.4 °C 1013.8 hPa Calm     62 % 0.0 mm
00:40 20.4 °C 15.2 °C 1011.7 hPa Calm   3.2 km/h 72 % 0.0 mm
00:50 20.4 °C 15.4 °C 1011.7 hPa Calm     73 % 0.0 mm
01:00 20.3 °C 15.3 °C 1011.7 hPa Calm     73 % 0.0 mm
01:10 20.2 °C 15.2 °C 1011.7 hPa Calm     73 % 0.0 mm
01:20 20.2 °C 15.2 °C 1011.7 hPa Calm     73 % 0.0 mm
01:30 20.3 °C 15.3 °C 1011.7 hPa Calm     73 % 0.0 mm
01:40 20.1 °C 15.1 °C 1011.7 hPa Calm     73 % 0.0 mm
01:50 19.9 °C 15.1 °C 1011.7 hPa Calm     74 % 0.0 mm
02:00 19.9 °C 15.3 °C 1011.7 hPa Calm     75 % 0.0 mm
02:10 19.9 °C 15.3 °C 1011.7 hPa Calm     75 % 0.0 mm
02:20 20.1 °C 15.3 °C 1011.7 hPa Calm     74 % 0.0 mm
02:30 20.2 °C 15.4 °C 1011.7 hPa Calm     74 % 0.0 mm
02:40 20.7 °C 15.9 °C 1011.7 hPa Calm   1.6 km/h 74 % 0.0 mm
02:50 20.9 °C 15.7 °C 1010.7 hPa ESE 1.6 km/h 1.6 km/h 72 % 0.0 mm
03:00 20.9 °C 15.4 °C 1010.7 hPa South 3.2 km/h 3.2 km/h 71 % 0.0 mm
03:10 21.5 °C 16.0 °C 1011.7 hPa Calm   3.2 km/h 71 % 0.0 mm
03:20 21.6 °C 15.9 °C 1010.7 hPa Calm   3.2 km/h 70 % 0.0 mm
03:30 22.2 °C 16.0 °C 1010.7 hPa WSW 1.6 km/h 3.2 km/h 68 % 0.0 mm
03:40 22.6 °C 16.4 °C 1011.7 hPa SW 1.6 km/h 3.2 km/h 68 % 0.0 mm
03:50 22.7 °C 16.3 °C 1011.7 hPa SW 1.6 km/h 3.2 km/h 67 % 0.0 mm
04:00 23.6 °C 16.9 °C 1011.7 hPa Calm   1.6 km/h 66 % 0.0 mm
04:10 24.2 °C 16.4 °C 1011.7 hPa NNE 1.6 km/h 3.2 km/h 62 % 0.0 mm
04:20 24.9 °C 16.6 °C 1011.7 hPa NE 3.2 km/h 3.2 km/h 60 % 0.0 mm
04:30 25.6 °C 16.4 °C 1011.7 hPa ENE 1.6 km/h 3.2 km/h 57 % 0.0 mm
04:40 25.7 °C 16.0 °C 1011.7 hPa ENE 1.6 km/h 4.8 km/h 55 % 0.0 mm
04:50 26.0 °C 15.9 °C 1011.7 hPa East 3.2 km/h 4.8 km/h 54 % 0.0 mm
05:10 27.8 °C 17.1 °C 1011.7 hPa Calm   3.2 km/h 52 % 0.0 mm
05:20 27.4 °C 16.4 °C 1010.7 hPa ESE 4.8 km/h 4.8 km/h 51 % 0.0 mm
05:30 27.6 °C 16.2 °C 1010.7 hPa ESE 4.8 km/h 4.8 km/h 50 % 0.0 mm
05:40 27.8 °C 16.7 °C 1011.7 hPa East 3.2 km/h 6.4 km/h 51 % 0.0 mm
05:50 28.1 °C 16.7 °C 1011.7 hPa East 4.8 km/h 6.4 km/h 50 % 0.0 mm
06:00 28.5 °C 17.1 °C 1011.7 hPa East 4.8 km/h 6.4 km/h 50 % 0.0 mm
06:10 29.4 °C 17.2 °C 1011.7 hPa East 4.8 km/h 6.4 km/h 48 % 0.0 mm
06:20 29.1 °C 17.3 °C 1011.7 hPa ENE 4.8 km/h 6.4 km/h 49 % 0.0 mm
11:30 30.2 °C 18.0 °C 1011.7 hPa SSW 3.9 km/h 5.0 km/h 48 % 0.0 mm
11:35 30.9 °C 18.6 °C 1011.7 hPa West 3.5 km/h 3.5 km/h 48 % 0.0 mm
11:45 31.3 °C 18.7 °C 1011.7 hPa SE 7.4 km/h 7.4 km/h 47 % 0.0 mm
11:50 30.3 °C 17.7 °C 1011.7 hPa ESE 11.1 km/h 11.1 km/h 47 % 0.0 mm
11:54 31.1 °C 18.1 °C 1011.7 hPa SSE 5.6 km/h 5.6 km/h 46 % 0.0 mm
11:55 31.1 °C 18.1 °C 1011.7 hPa West 5.6 km/h 5.6 km/h 46 % 0.0 mm
12:00 30.9 °C 18.3 °C 1011.7 hPa East 5.6 km/h 5.6 km/h 47 % 0.0 mm
12:05 31.4 °C 18.7 °C 1011.7 hPa SSW 3.7 km/h 3.7 km/h 47 % 0.0 mm
12:10 32.0 °C 18.9 °C 1011.7 hPa SW 5.6 km/h 5.6 km/h 46 % 0.0 mm
12:15 31.6 °C 18.9 °C 1011.7 hPa ENE 5.6 km/h 5.6 km/h 47 % 0.0 mm
12:20 31.4 °C 18.7 °C 1010.7 hPa ENE 11.1 km/h 11.1 km/h 47 % 0.0 mm
12:25 31.0 °C 18.4 °C 1010.7 hPa ENE 7.4 km/h 8.7 km/h 47 % 0.0 mm
12:30 31.0 °C 18.4 °C 1010.7 hPa ENE 7.4 km/h 7.4 km/h 47 % 0.0 mm
12:35 31.5 °C 18.8 °C 1011.7 hPa NE 6.4 km/h 6.4 km/h 47 % 0.0 mm
12:40 31.4 °C 18.7 °C 1011.7 hPa East 9.3 km/h 9.3 km/h 47 % 0.0 mm
12:45 31.8 °C 19.1 °C 1011.7 hPa NE 3.7 km/h 3.7 km/h 47 % 0.0 mm
12:50 31.6 °C 18.6 °C 1010.7 hPa ESE 10.3 km/h 10.3 km/h 46 % 0.0 mm
12:55 31.2 °C 18.2 °C 1010.7 hPa East 16.7 km/h 16.7 km/h 46 % 0.0 mm
13:00 31.3 °C 17.9 °C 1010.7 hPa East 17.2 km/h 17.2 km/h 45 % 0.0 mm
13:05 31.7 °C 18.3 °C 1010.7 hPa ESE 13.0 km/h 13.0 km/h 45 % 0.0 mm
13:10 31.5 °C 18.1 °C 1010.7 hPa SSE 12.6 km/h 12.6 km/h 45 % 0.0 mm
13:11 31.5 °C 18.1 °C 1010.7 hPa East 13.0 km/h 13.0 km/h 45 % 0.0 mm
13:16 31.4 °C 17.7 °C 1010.7 hPa SE 11.1 km/h 11.1 km/h 44 % 0.0 mm
13:21 31.7 °C 17.9 °C 1010.7 hPa ESE 16.7 km/h 16.7 km/h 44 % 0.0 mm
13:26 31.6 °C 17.8 °C 1010.7 hPa East 10.3 km/h 10.3 km/h 44 % 0.0 mm
13:31 32.1 °C 17.9 °C 1010.7 hPa East 18.5 km/h 18.5 km/h 43 % 0.0 mm
13:36 31.8 °C 17.7 °C 1010.0 hPa SE 18.5 km/h 18.5 km/h 43 % 0.0 mm
13:41 31.8 °C 17.7 °C 1010.0 hPa SE 13.0 km/h 13.0 km/h 43 % 0.0 mm
13:46 31.8 °C 17.7 °C 1010.0 hPa ESE 14.8 km/h 14.8 km/h 43 % 0.0 mm
13:51 31.6 °C 17.5 °C 1010.0 hPa ENE 13.0 km/h 14.5 km/h 43 % 0.0 mm
13:56 31.6 °C 17.8 °C 1010.0 hPa ENE 20.4 km/h 20.4 km/h 44 % 0.0 mm
14:01 31.8 °C 18.1 °C 1010.0 hPa NE 14.8 km/h 14.8 km/h 44 % 0.0 mm
14:06 31.7 °C 17.6 °C 1010.0 hPa ESE 16.7 km/h 16.7 km/h 43 % 0.0 mm
14:11 32.1 °C 18.3 °C 1010.0 hPa ESE 16.4 km/h 16.4 km/h 44 % 0.0 mm
14:16 32.2 °C 18.1 °C 1010.0 hPa ENE 9.7 km/h 9.7 km/h 43 % 0.0 mm
14:21 32.1 °C 17.9 °C 1010.0 hPa SE 18.5 km/h 18.5 km/h 43 % 0.0 mm
14:26 32.0 °C 17.8 °C 1010.0 hPa ESE 17.2 km/h 17.2 km/h 43 % 0.0 mm
14:31 31.8 °C 17.7 °C 1010.0 hPa ESE 16.7 km/h 16.7 km/h 43 % 0.0 mm
14:36 32.2 °C 18.1 °C 1010.0 hPa East 16.7 km/h 16.7 km/h 43 % 0.0 mm
14:41 32.2 °C 17.7 °C 1010.0 hPa ESE 13.0 km/h 14.0 km/h 42 % 0.0 mm
14:46 32.2 °C 17.7 °C 1010.0 hPa ESE 20.4 km/h 20.4 km/h 42 % 0.0 mm
14:51 32.4 °C 17.8 °C 1010.0 hPa East 16.7 km/h 16.7 km/h 42 % 0.0 mm
14:56 32.5 °C 17.9 °C 1010.0 hPa ESE 14.8 km/h 14.8 km/h 42 % 0.0 mm
15:01 32.4 °C 17.4 °C 1010.0 hPa East 21.2 km/h 21.2 km/h 41 % 0.0 mm
15:06 32.5 °C 17.9 °C 1010.7 hPa ESE 22.2 km/h 22.2 km/h 42 % 0.0 mm
15:16 32.3 °C 17.8 °C 1010.7 hPa ENE 16.7 km/h 16.7 km/h 42 % 0.0 mm
15:21 32.8 °C 18.2 °C 1010.7 hPa ENE 16.9 km/h 16.9 km/h 42 % 0.0 mm
15:26 32.6 °C 18.0 °C 1010.7 hPa NNE 18.5 km/h 18.5 km/h 42 % 0.0 mm
15:31 33.0 °C 17.6 °C 1010.7 hPa East 13.0 km/h 13.0 km/h 40 % 0.0 mm
15:36 33.0 °C 16.8 °C 1010.7 hPa SE 14.8 km/h 14.8 km/h 38 % 0.0 mm
15:41 33.5 °C 17.7 °C 1010.7 hPa East 11.1 km/h 11.1 km/h 39 % 0.0 mm
15:46 33.0 °C 17.2 °C 1010.7 hPa East 11.4 km/h 11.4 km/h 39 % 0.0 mm
15:51 32.9 °C 17.5 °C 1010.0 hPa ESE 14.8 km/h 14.8 km/h 40 % 0.0 mm
15:56 33.5 °C 16.8 °C 1010.0 hPa South 9.3 km/h 9.3 km/h 37 % 0.0 mm
16:01 34.1 °C 16.9 °C 1010.0 hPa East 7.4 km/h 7.4 km/h 36 % 0.0 mm
16:06 34.7 °C 18.3 °C 1010.0 hPa SW 10.0 km/h 10.0 km/h 38 % 0.0 mm
16:11 34.6 °C 17.8 °C 1010.0 hPa SW 9.3 km/h 9.3 km/h 37 % 0.0 mm
16:16 34.8 °C 17.5 °C 1010.0 hPa ESE 5.6 km/h 5.6 km/h 36 % 0.0 mm
16:21 34.5 °C 17.3 °C 1010.0 hPa SE 14.8 km/h 14.8 km/h 36 % 0.0 mm
16:26 34.5 °C 17.7 °C 1010.0 hPa South 3.7 km/h 3.7 km/h 37 % 0.0 mm
16:31 35.0 °C 17.3 °C 1010.0 hPa SSW 9.3 km/h 9.3 km/h 35 % 0.0 mm
16:37 34.8 °C 17.5 °C 1010.0 hPa South 5.6 km/h 5.6 km/h 36 % 0.0 mm
16:42 35.5 °C 17.2 °C 1010.0 hPa SSW 5.6 km/h 5.6 km/h 34 % 0.0 mm
16:47 34.4 °C 16.3 °C 1010.0 hPa ESE 11.1 km/h 11.1 km/h 34 % 0.0 mm
16:52 34.2 °C 17.0 °C 1010.0 hPa South 9.3 km/h 9.3 km/h 36 % 0.0 mm
16:57 34.1 °C 16.4 °C 1010.0 hPa NE 9.3 km/h 9.3 km/h 35 % 0.0 mm
17:02 33.8 °C 16.2 °C 1010.0 hPa NE 9.3 km/h 9.3 km/h 35 % 0.0 mm
17:07 33.9 °C 16.3 °C 1010.0 hPa SE 9.3 km/h 9.3 km/h 35 % 0.0 mm
17:12 33.9 °C 16.7 °C 1010.0 hPa ESE 13.0 km/h 13.0 km/h 36 % 0.0 mm
17:17 33.5 °C 16.4 °C 1010.0 hPa ESE 13.0 km/h 13.0 km/h 36 % 0.0 mm
17:22 32.8 °C 16.2 °C 1010.0 hPa ESE 14.8 km/h 14.8 km/h 37 % 0.0 mm
17:27 32.7 °C 16.5 °C 1010.0 hPa ENE 9.3 km/h 9.3 km/h 38 % 0.0 mm
17:32 32.9 °C 16.7 °C 1010.0 hPa ESE 9.3 km/h 9.3 km/h 38 % 0.0 mm
17:37 32.9 °C 16.7 °C 1010.0 hPa SE 14.8 km/h 14.8 km/h 38 % 0.0 mm
17:42 32.6 °C 16.8 °C 1010.0 hPa SSE 16.7 km/h 16.7 km/h 39 % 0.0 mm
17:47 32.4 °C 17.1 °C 1010.0 hPa ESE 7.4 km/h 7.4 km/h 40 % 0.0 mm
17:52 32.0 °C 17.1 °C 1010.0 hPa ENE 16.7 km/h 16.7 km/h 41 % 0.0 mm
17:55 31.8 °C 16.9 °C 1010.0 hPa East 13.0 km/h 13.0 km/h 41 % 0.0 mm
18:00 31.8 °C 17.3 °C 1010.0 hPa East 9.3 km/h 9.7 km/h 42 % 0.0 mm
18:05 31.4 °C 16.9 °C 1010.0 hPa ENE 18.5 km/h 18.5 km/h 42 % 0.0 mm
18:10 31.4 °C 17.3 °C 1010.0 hPa NE 14.8 km/h 14.8 km/h 43 % 0.0 mm
18:15 31.1 °C 17.1 °C 1010.0 hPa ESE 14.8 km/h 14.8 km/h 43 % 0.0 mm
18:20 30.9 °C 17.2 °C 1010.0 hPa ESE 14.8 km/h 14.8 km/h 44 % 0.0 mm
18:25 30.6 °C 17.3 °C 1010.0 hPa NE 16.7 km/h 16.7 km/h 45 % 0.0 mm
18:30 30.6 °C 17.3 °C 1010.0 hPa East 11.1 km/h 11.1 km/h 45 % 0.0 mm
18:35 30.4 °C 17.5 °C 1010.0 hPa East 16.7 km/h 16.7 km/h 46 % 0.0 mm
18:40 30.3 °C 17.4 °C 1010.0 hPa ESE 17.2 km/h 17.2 km/h 46 % 0.0 mm
18:45 30.3 °C 17.7 °C 1010.0 hPa ENE 11.1 km/h 11.1 km/h 47 % 0.0 mm
18:50 30.3 °C 17.7 °C 1010.0 hPa ESE 15.8 km/h 15.8 km/h 47 % 0.0 mm
18:55 29.9 °C 17.7 °C 1010.0 hPa NE 16.7 km/h 16.7 km/h 48 % 0.0 mm
19:00 29.8 °C 17.9 °C 1010.0 hPa ENE 14.8 km/h 14.8 km/h 49 % 0.0 mm
19:05 29.6 °C 17.8 °C 1010.0 hPa East 13.0 km/h 13.0 km/h 49 % 0.0 mm
19:10 29.3 °C 17.8 °C 1010.0 hPa ENE 14.8 km/h 14.8 km/h 50 % 0.0 mm
19:15 29.3 °C 18.1 °C 1010.0 hPa ENE 13.0 km/h 13.0 km/h 51 % 0.0 mm
19:20 29.2 °C 18.3 °C 1010.0 hPa East 14.8 km/h 14.8 km/h 52 % 0.0 mm
19:25 29.1 °C 18.2 °C 1010.0 hPa ENE 13.0 km/h 13.0 km/h 52 % 0.0 mm
19:30 28.8 °C 18.6 °C 1010.0 hPa ESE 16.7 km/h 16.7 km/h 54 % 0.0 mm
19:35 28.6 °C 18.7 °C 1010.0 hPa ESE 14.8 km/h 14.8 km/h 55 % 0.0 mm
19:40 28.6 °C 18.7 °C 1010.0 hPa ESE 9.3 km/h 9.3 km/h 55 % 0.0 mm
19:45 28.6 °C 18.7 °C 1010.0 hPa ESE 13.7 km/h 13.7 km/h 55 % 0.0 mm
19:50 28.4 °C 18.8 °C 1010.0 hPa ESE 11.1 km/h 11.1 km/h 56 % 0.0 mm
19:55 28.3 °C 18.7 °C 1010.0 hPa ESE 16.7 km/h 16.7 km/h 56 % 0.0 mm
20:00 28.0 °C 18.7 °C 1010.0 hPa ESE 10.0 km/h 10.0 km/h 57 % 0.0 mm
20:05 27.9 °C 18.6 °C 1010.0 hPa East 11.1 km/h 11.1 km/h 57 % 0.0 mm
20:10 27.8 °C 18.8 °C 1010.0 hPa ESE 11.1 km/h 11.1 km/h 58 % 0.0 mm
20:15 27.7 °C 18.4 °C 1010.0 hPa ESE 13.0 km/h 13.0 km/h 57 % 0.0 mm
20:20 27.5 °C 18.2 °C 1010.0 hPa ESE 11.9 km/h 11.9 km/h 57 % 0.0 mm
20:25 27.4 °C 18.1 °C 1010.0 hPa ENE 13.0 km/h 13.0 km/h 57 % 0.0 mm
20:30 27.3 °C 17.8 °C 1010.0 hPa ESE 9.3 km/h 9.3 km/h 56 % 0.0 mm
20:35 27.3 °C 17.8 °C 1010.0 hPa SE 7.4 km/h 7.4 km/h 56 % 0.0 mm
20:40 27.2 °C 17.7 °C 1010.0 hPa East 9.3 km/h 9.3 km/h 56 % 0.0 mm
20:45 27.1 °C 17.3 °C 1010.0 hPa ENE 7.4 km/h 7.4 km/h 55 % 0.0 mm
20:50 27.0 °C 17.2 °C 1010.7 hPa ENE 6.9 km/h 6.9 km/h 55 % 0.0 mm
20:55 26.9 °C 17.4 °C 1010.7 hPa ENE 7.4 km/h 7.4 km/h 56 % 0.0 mm
21:00 26.8 °C 17.6 °C 1010.7 hPa ENE 9.3 km/h 9.3 km/h 57 % 0.0 mm
21:05 26.7 °C 17.5 °C 1009.0 hPa East 5.6 km/h 5.6 km/h 57 % 0.0 mm
21:10 26.5 °C 17.6 °C 1009.0 hPa ESE 5.8 km/h 5.8 km/h 58 % 0.0 mm
21:11 26.5 °C 17.6 °C 1009.0 hPa ENE 5.8 km/h 5.8 km/h 58 % 0.0 mm
21:16 26.4 °C 17.4 °C 1009.0 hPa ENE 7.4 km/h 7.4 km/h 58 % 0.0 mm
21:20 23.3 °C 18.6 °C 1010.0 hPa NE 3.2 km/h 3.2 km/h 75 % 0.0 mm
21:21 26.3 °C 17.9 °C 1010.0 hPa East 9.5 km/h 9.5 km/h 60 % 0.0 mm
21:26 26.1 °C 18.0 °C 1010.0 hPa NNE 9.3 km/h 9.3 km/h 61 % 0.0 mm
21:30 23.2 °C 18.5 °C 1010.0 hPa NE 3.2 km/h 4.8 km/h 75 % 0.0 mm
21:31 26.0 °C 17.9 °C 1010.0 hPa NNE 5.0 km/h 5.0 km/h 61 % 0.0 mm
21:36 25.9 °C 17.8 °C 1010.0 hPa NE 7.4 km/h 7.4 km/h 61 % 0.0 mm
21:40 23.1 °C 18.6 °C 1010.0 hPa Calm   3.2 km/h 76 % 0.0 mm
21:41 25.9 °C 18.1 °C 1010.0 hPa East 5.6 km/h 5.6 km/h 62 % 0.0 mm
21:46 25.7 °C 18.1 °C 1010.0 hPa NE 9.3 km/h 9.3 km/h 63 % 0.0 mm
21:50 23.1 °C 18.4 °C 1010.0 hPa NE 3.2 km/h 4.8 km/h 75 % 0.0 mm
21:51 25.7 °C 18.4 °C 1010.0 hPa East 9.3 km/h 9.3 km/h 64 % 0.0 mm
21:56 25.6 °C 18.3 °C 1010.0 hPa ENE 5.8 km/h 5.8 km/h 64 % 0.0 mm
22:00 23.1 °C 18.2 °C 1010.0 hPa NE 1.6 km/h 4.8 km/h 74 % 0.0 mm
22:01 25.6 °C 18.3 °C 1010.0 hPa NE 5.6 km/h 5.6 km/h 64 % 0.0 mm
22:06 25.5 °C 18.2 °C 1010.0 hPa East 5.6 km/h 5.6 km/h 64 % 0.0 mm
22:10 23.1 °C 18.2 °C 1010.0 hPa NE 3.2 km/h 3.2 km/h 74 % 0.0 mm
22:16 25.4 °C 18.6 °C 1010.0 hPa ENE 5.6 km/h 5.6 km/h 66 % 0.0 mm
22:20 23.1 °C 18.0 °C 1010.0 hPa ENE 3.2 km/h 8.0 km/h 73 % 0.0 mm
22:21 25.3 °C 18.5 °C 1010.7 hPa East 5.8 km/h 5.8 km/h 66 % 0.0 mm
22:26 25.3 °C 18.7 °C 1010.7 hPa ENE 3.7 km/h 4.2 km/h 67 % 0.0 mm
22:30 23.1 °C 17.8 °C 1010.0 hPa East 3.2 km/h 9.7 km/h 72 % 0.0 mm
22:31 25.2 °C 18.9 °C 1010.7 hPa North 7.4 km/h 7.4 km/h 68 % 0.0 mm
22:36 25.1 °C 18.8 °C 1010.7 hPa ENE 3.7 km/h 3.7 km/h 68 % 0.0 mm
22:40 23.1 °C 17.6 °C 1010.0 hPa ENE 4.8 km/h 4.8 km/h 71 % 0.0 mm
22:41 25.0 °C 18.7 °C 1010.7 hPa NNE 5.6 km/h 5.8 km/h 68 % 0.0 mm
22:46 24.9 °C 19.1 °C 1010.7 hPa ENE 4.2 km/h 4.2 km/h 70 % 0.0 mm
22:50 23.1 °C 17.6 °C 1010.0 hPa ENE 4.8 km/h 6.4 km/h 71 % 0.0 mm
22:51 24.8 °C 18.9 °C 1010.7 hPa ENE 7.4 km/h 7.4 km/h 70 % 0.0 mm
22:56 24.8 °C 18.9 °C 1010.7 hPa ENE 9.3 km/h 9.3 km/h 70 % 0.0 mm
23:00 23.0 °C 17.4 °C 1010.0 hPa NE 4.8 km/h 6.4 km/h 71 % 0.0 mm
23:01 24.7 °C 18.8 °C 1010.7 hPa ENE 7.4 km/h 7.4 km/h 70 % 0.0 mm
23:06 24.6 °C 18.8 °C 1010.7 hPa East 4.2 km/h 4.2 km/h 70 % 0.0 mm
23:10 22.8 °C 17.3 °C 1010.0 hPa NE 3.2 km/h 4.8 km/h 71 % 0.0 mm
23:11 24.6 °C 19.0 °C 1010.7 hPa NNE 3.9 km/h 3.9 km/h 71 % 0.0 mm
23:16 24.6 °C 19.0 °C 1010.7 hPa ENE 7.4 km/h 7.4 km/h 71 % 0.0 mm
23:20 22.7 °C 17.2 °C 1010.0 hPa NNE 4.8 km/h 6.4 km/h 71 % 0.0 mm
23:21 24.6 °C 19.0 °C 1010.7 hPa ENE 3.7 km/h 3.7 km/h 71 % 0.0 mm
23:26 24.5 °C 18.9 °C 1010.7 hPa ENE 3.9 km/h 3.9 km/h 71 % 0.0 mm
23:30 22.7 °C 17.2 °C 1010.0 hPa NE 4.8 km/h 6.4 km/h 71 % 0.0 mm
23:31 24.5 °C 18.9 °C 1010.7 hPa East 4.7 km/h 4.7 km/h 71 % 0.0 mm
23:36 24.4 °C 19.0 °C 1010.0 hPa NNE 1.9 km/h 1.9 km/h 72 % 0.0 mm
23:40 22.6 °C 17.1 °C 1010.0 hPa NE 4.8 km/h 6.4 km/h 71 % 0.0 mm
23:41 24.4 °C 19.0 °C 1010.0 hPa Calm     72 % 0.0 mm
23:46 24.3 °C 18.9 °C 1010.0 hPa Calm     72 % 0.0 mm
23:50 22.6 °C 17.1 °C 1010.0 hPa NE 4.8 km/h 6.4 km/h 71 % 0.0 mm
23:51 24.3 °C 18.9 °C 1010.0 hPa SW 3.7 km/h 3.7 km/h 72 % 0.0 mm
23:56 24.2 °C 18.8 °C 1010.0 hPa SW 1.9 km/h   72 % 0.0 mm
Meteo Sesrovires
Elogis d' Weather Underground - 3.5 mb

Guio original per  Jim McMurry - jmcmurry@mwt.net Adaptat per a la plantilla per  Wim van der Kuil - Leuven-Template.eu

Trobareu la nostra informacio del temps tambe a:

Weather Underground

AWEKAS